Time;durP1;ratioP1;P1;durP2;ratioP2;P2;SDS_P1;SDS_P2;PMS_P1;PMS_P2;Temp;Humidity;BMP_temperature;BMP_pressure;BME280_temperature;BME280_humidity;BME280_pressure;Samples;Min_cycle;Max_cycle;Signal;HPM_P1;HPM_P2
2022/09/02 00:00:21;;;;;;;1.60;0.50;;;;;;;16.67;87.77;100096.03;5124827;28;20298;-69
2022/09/02 00:03:01;;;;;;;0.40;0.40;;;;;;;16.67;87.69;100103.97;5123627;28;20282;-68
2022/09/02 00:05:40;;;;;;;1.07;0.60;;;;;;;16.76;88.43;100108.84;5124751;28;20055;-64
2022/09/02 00:08:21;;;;;;;0.50;0.50;;;;;;;16.80;89.00;100110.47;5124656;28;20502;-68
2022/09/02 00:11:10;;;;;;;1.17;0.47;;;;;;;16.85;88.66;100112.00;5124445;28;20448;-66
2022/09/02 00:13:49;;;;;;;2.28;0.60;;;;;;;17.17;89.56;100114.09;5122032;28;20307;-68
2022/09/02 00:16:34;;;;;;;0.82;0.50;;;;;;;17.66;88.75;100098.53;5124176;28;20067;-66
2022/09/02 00:19:14;;;;;;;;;;;;;;;18.18;87.05;100118.09;5092834;28;20052;-68
2022/09/02 00:24:42;;;;;;;0.37;0.37;;;;;;;19.07;84.31;100132.03;5123533;28;20293;-69
2022/09/02 00:27:26;;;;;;;1.73;0.53;;;;;;;18.98;80.18;100137.84;5123647;28;20621;-68
2022/09/02 00:30:22;;;;;;;1.90;0.57;;;;;;;18.92;82.21;100126.63;5124268;28;20289;-67
2022/09/02 00:33:14;;;;;;;1.27;0.40;;;;;;;18.93;80.24;100101.00;5123836;28;20292;-68
2022/09/02 00:38:40;;;;;;;0.70;0.40;;;;;;;19.85;81.96;100129.56;5114369;28;20282;-66
2022/09/02 00:41:34;;;;;;;1.70;0.50;;;;;;;19.94;78.53;100126.34;5110891;28;20290;-67
2022/09/02 00:44:18;;;;;;;2.63;0.40;;;;;;;20.14;78.90;100112.78;5116329;28;20056;-69
2022/09/02 00:47:11;;;;;;;1.57;0.63;;;;;;;20.37;76.82;100137.97;5104930;28;20305;-67
2022/09/02 00:50:11;;;;;;;2.87;0.63;;;;;;;20.03;76.50;100120.53;5117457;28;20304;-65
2022/09/02 00:53:03;;;;;;;0.73;0.57;;;;;;;19.75;77.79;100135.38;5121207;28;20289;-67
2022/09/02 00:55:52;;;;;;;1.70;0.70;;;;;;;19.56;79.08;100135.50;5124331;28;20281;-66
2022/09/02 00:58:37;;;;;;;0.90;0.60;;;;;;;19.39;79.35;100141.75;5124451;28;20324;-67
2022/09/02 01:01:18;;;;;;;1.63;0.70;;;;;;;19.03;76.72;100143.72;5122447;28;20312;-70
2022/09/02 01:04:09;;;;;;;1.53;0.40;;;;;;;18.59;76.74;100107.19;5080815;28;20298;-70
2022/09/02 01:06:45;;;;;;;0.97;0.50;;;;;;;18.99;78.61;100147.47;5102355;28;20301;-68
2022/09/02 01:09:24;;;;;;;1.90;0.73;;;;;;;19.08;80.86;100162.88;5071254;28;20343;-68
2022/09/02 01:12:05;;;;;;;1.43;0.60;;;;;;;19.09;80.55;100153.97;5106320;28;20293;-69
2022/09/02 01:14:50;;;;;;;1.83;0.80;;;;;;;19.32;83.03;100164.22;5103414;28;20286;-71
2022/09/02 01:17:32;;;;;;;3.17;0.60;;;;;;;19.20;81.66;100171.97;5103244;28;20333;-69
2022/09/02 01:20:16;;;;;;;1.13;0.47;;;;;;;18.98;81.05;100156.38;5103315;28;20286;-71
2022/09/02 01:23:18;;;;;;;1.43;0.50;;;;;;;19.00;82.39;100173.88;5108532;28;20297;-69
2022/09/02 01:25:57;;;;;;;1.07;0.70;;;;;;;19.12;84.15;100181.19;5060829;28;20302;-68
2022/09/02 01:28:42;;;;;;;3.83;2.67;;;;;;;19.17;84.87;100180.94;5101637;28;20342;-73
2022/09/02 01:31:26;;;;;;;2.73;1.50;;;;;;;19.24;86.17;100187.59;5102844;28;20290;-70
2022/09/02 01:34:17;;;;;;;4.50;1.10;;;;;;;19.09;85.00;100164.56;5084459;28;20304;-68
2022/09/02 01:36:58;;;;;;;2.90;0.67;;;;;;;19.17;83.64;100189.72;5104155;28;20512;-68
2022/09/02 01:39:44;;;;;;;2.95;0.70;;;;;;;19.09;82.81;100204.31;5090260;28;20590;-69
2022/09/02 01:42:33;;;;;;;6.27;0.60;;;;;;;19.18;82.65;100203.81;5124707;28;20064;-68
2022/09/02 01:45:12;;;;;;;3.90;0.83;;;;;;;19.17;79.86;100207.44;5122554;28;20292;-68
2022/09/02 01:47:59;;;;;;;2.80;0.80;;;;;;;19.35;80.63;100203.78;5096724;28;20286;-71
2022/09/02 01:50:53;;;;;;;2.17;0.50;;;;;;;19.63;79.95;100201.44;5123222;28;20273;-67
2022/09/02 01:53:43;;;;;;;2.03;0.50;;;;;;;20.10;80.81;100180.25;5122923;28;20296;-65
2022/09/02 01:56:26;;;;;;;1.57;0.90;;;;;;;20.38;79.39;100207.81;5124313;28;20459;-64
2022/09/02 01:59:02;;;;;;;1.90;0.40;;;;;;;20.59;75.71;100192.47;5124770;28;20317;-68
2022/09/02 02:01:43;;;;;;;1.87;0.40;;;;;;;20.82;73.34;100204.41;5124293;28;20281;-64
2022/09/02 02:04:23;;;;;;;2.10;0.50;;;;;;;20.83;72.08;100195.47;5097174;28;20281;-66
2022/09/02 02:07:13;;;;;;;2.97;0.50;;;;;;;20.76;71.82;100199.44;5124276;28;20313;-64
2022/09/02 02:09:58;;;;;;;2.77;0.60;;;;;;;20.51;70.31;100211.47;5124233;28;20594;-66
2022/09/02 02:18:36;;;;;;;1.93;0.50;;;;;;;19.72;70.74;100207.13;5114438;28;20330;-65
2022/09/02 02:21:25;;;;;;;2.23;0.60;;;;;;;19.66;70.97;100196.81;5123953;28;20299;-64
2022/09/02 02:24:09;;;;;;;2.50;0.57;;;;;;;19.21;69.46;100116.25;5123265;28;20285;-62
2022/09/02 02:27:02;;;;;;;4.60;0.60;;;;;;;19.71;69.63;100209.84;5123916;28;20365;-64
2022/09/02 02:30:06;;;;;;;6.70;0.70;;;;;;;19.55;69.36;100212.44;5124397;28;20300;-65
2022/09/02 02:32:46;;;;;;;2.30;0.80;;;;;;;19.35;68.76;100214.38;5124242;28;20296;-64
2022/09/02 02:35:34;;;;;;;4.13;0.40;;;;;;;19.34;69.19;100211.81;5123546;28;20358;-65
2022/09/02 02:38:31;;;;;;;3.47;0.90;;;;;;;19.61;70.98;100209.44;5078835;28;20380;-63
2022/09/02 02:41:13;;;;;;;2.10;0.60;;;;;;;19.95;69.90;100218.25;5097629;28;20421;-63
2022/09/02 02:43:53;;;;;;;1.63;0.60;;;;;;;20.32;67.92;100221.44;5122584;28;20310;-64
2022/09/02 02:46:48;;;;;;;2.10;0.50;;;;;;;20.19;64.37;100184.16;5124011;28;20285;-64
2022/09/02 02:49:33;;;;;;;3.30;0.80;;;;;;;20.24;64.91;100224.53;5123081;28;20285;-66
2022/09/02 02:55:07;;;;;;;4.60;0.97;;;;;;;20.22;66.92;100229.94;5122641;28;20289;-65
2022/09/02 02:57:54;;;;;;;6.43;1.03;;;;;;;20.21;66.66;100233.53;5123257;28;20312;-64
2022/09/02 03:00:36;;;;;;;6.13;0.70;;;;;;;20.24;66.99;100241.31;5122933;28;20281;-64
2022/09/02 03:03:22;;;;;;;5.93;0.83;;;;;;;20.09;64.79;100226.25;5122149;28;20095;-65
2022/09/02 03:06:03;;;;;;;2.93;0.70;;;;;;;20.10;62.40;100248.34;5122615;28;20293;-64
2022/09/02 03:08:43;;;;;;;5.03;1.10;;;;;;;19.90;63.46;100249.47;5121101;28;20451;-64
2022/09/02 03:11:32;;;;;;;4.53;0.80;;;;;;;19.87;66.52;100241.66;5098323;28;20905;-64
2022/09/02 03:14:08;;;;;;;3.57;1.30;;;;;;;19.88;65.19;100251.34;5122152;28;20365;-66
2022/09/02 03:16:48;;;;;;;7.97;1.00;;;;;;;19.82;64.94;100250.75;5122515;28;20297;-64
2022/09/02 03:19:31;;;;;;;6.97;1.70;;;;;;;19.97;64.62;100253.50;5121164;28;20301;-63
2022/09/02 03:22:09;;;;;;;3.57;1.40;;;;;;;19.94;62.49;100254.50;5123192;28;20360;-66
2022/09/02 03:27:44;;;;;;;8.83;1.20;;;;;;;19.85;63.07;100254.16;5099394;28;20304;-66
2022/09/02 03:30:34;;;;;;;6.23;1.20;;;;;;;19.92;63.78;100267.00;5099862;28;20293;-66
2022/09/02 03:33:17;;;;;;;6.25;1.20;;;;;;;19.81;64.17;100270.22;5100030;28;20285;-67
2022/09/02 03:36:24;;;;;;;3.30;0.93;;;;;;;19.75;62.53;100265.25;5099387;28;20048;-67
2022/09/02 03:39:21;;;;;;;2.63;0.70;;;;;;;19.61;60.33;100257.16;5099038;28;20329;-66
2022/09/02 03:42:11;;;;;;;4.33;1.00;;;;;;;20.16;61.46;100274.53;5100117;28;20286;-64
2022/09/02 03:44:59;;;;;;;2.87;1.00;;;;;;;20.47;61.86;100284.28;5056117;28;20293;-65
2022/09/02 03:47:50;;;;;;;2.40;1.40;;;;;;;20.51;61.45;100285.78;5099602;28;20308;-66
2022/09/02 03:50:41;;;;;;;3.70;1.03;;;;;;;20.60;61.30;100285.31;5100181;28;20270;-68
2022/09/02 03:53:32;;;;;;;6.40;1.00;;;;;;;20.07;59.70;100249.38;5095772;28;20304;-67
2022/09/02 03:56:17;;;;;;;3.70;0.85;;;;;;;20.18;58.88;100289.41;5099816;28;20274;-65
2022/09/02 03:59:07;;;;;;;6.10;1.03;;;;;;;19.96;60.69;100272.97;5113913;28;20082;-67
2022/09/02 04:01:48;;;;;;;3.70;0.70;;;;;;;20.35;62.45;100300.88;5094074;28;20277;-66
2022/09/02 04:04:38;;;;;;;5.77;2.97;;;;;;;20.48;62.24;100301.91;5121833;28;20321;-67
2022/09/02 04:07:25;;;;;;;5.20;1.30;;;;;;;20.33;62.06;100276.22;5121560;28;20337;-65
2022/09/02 04:13:32;;;;;;;8.00;4.37;;;;;;;20.57;62.01;100301.41;5121379;28;20348;-67
2022/09/02 04:16:15;;;;;;;8.60;3.87;;;;;;;20.29;62.86;100237.53;5122107;28;20285;-65
2022/09/02 04:19:03;;;;;;;7.10;2.47;;;;;;;20.76;62.36;100310.97;5078608;28;20346;-66
2022/09/02 04:21:46;;;;;;;4.33;1.63;;;;;;;20.72;62.32;100314.72;5076975;28;20301;-66
2022/09/02 04:24:21;;;;;;;9.50;5.20;;;;;;;20.76;63.17;100321.56;5121607;28;20282;-65
2022/09/02 04:27:15;;;;;;;7.13;1.40;;;;;;;20.65;61.94;100328.38;5104807;28;20333;-66
2022/09/02 04:30:15;;;;;;;2.43;1.30;;;;;;;20.54;61.97;100320.13;5121162;28;20287;-66
2022/09/02 04:33:17;;;;;;;6.80;1.60;;;;;;;20.57;61.87;100338.56;5121703;28;20303;-67
2022/09/02 04:36:08;;;;;;;6.97;0.93;;;;;;;20.37;60.22;100341.47;5121563;28;20289;-65
2022/09/02 04:38:51;;;;;;;2.93;1.17;;;;;;;20.36;63.49;100329.13;5121606;28;20305;-65
2022/09/02 04:41:36;;;;;;;5.63;3.03;;;;;;;20.50;63.71;100338.97;5121502;28;20277;-65
2022/09/02 04:44:32;;;;;;;5.13;2.27;;;;;;;20.44;62.37;100353.44;5121514;28;20290;-65
2022/09/02 04:47:34;;;;;;;6.37;2.30;;;;;;;20.21;63.65;100310.47;5121438;28;20299;-65
2022/09/02 04:50:26;;;;;;;4.60;1.00;;;;;;;20.53;62.68;100358.22;5121607;28;20353;-63
2022/09/02 04:53:20;;;;;;;4.53;1.00;;;;;;;20.52;63.84;100356.53;5120253;28;20289;-63
2022/09/02 04:55:58;;;;;;;13.67;1.30;;;;;;;20.45;62.83;100360.47;5120408;28;20281;-64
2022/09/02 04:58:33;;;;;;;6.17;1.23;;;;;;;20.40;63.66;100367.81;5120733;28;20304;-64
2022/09/02 05:01:41;;;;;;;4.40;1.03;;;;;;;20.32;63.15;100375.34;5121409;28;20309;-63
2022/09/02 05:04:22;;;;;;;4.17;1.17;;;;;;;20.18;63.73;100379.63;5121358;28;20309;-63
2022/09/02 05:07:04;;;;;;;6.63;1.13;;;;;;;20.00;62.33;100385.91;5121378;28;20345;-63
2022/09/02 05:09:48;;;;;;;7.63;2.83;;;;;;;19.91;63.68;100386.41;5120599;28;20300;-62
2022/09/02 05:12:29;;;;;;;7.13;0.90;;;;;;;19.77;63.10;100393.31;5105259;28;20290;-64
2022/09/02 05:15:03;;;;;;;5.77;1.27;;;;;;;19.51;63.28;100356.66;5125576;28;20319;-64
2022/09/02 05:17:45;;;;;;;5.67;1.20;;;;;;;19.67;62.43;100399.13;5125535;28;20455;-62
2022/09/02 05:20:27;;;;;;;5.63;1.20;;;;;;;19.55;62.37;100395.31;5123919;28;20708;-64
2022/09/02 05:23:06;;;;;;;3.00;0.87;;;;;;;19.61;63.41;100402.94;5125087;28;20409;-63
2022/09/02 05:25:56;;;;;;;4.37;1.00;;;;;;;19.81;63.45;100402.78;5125039;28;20305;-62
2022/09/02 05:28:48;;;;;;;5.27;0.87;;;;;;;19.95;61.43;100409.19;5088863;28;20370;-61
2022/09/02 05:31:32;;;;;;;4.70;0.80;;;;;;;19.76;60.04;100367.72;5125037;28;20340;-62
2022/09/02 05:34:16;;;;;;;5.13;1.20;;;;;;;19.85;61.69;100402.66;5124057;28;20623;-63
2022/09/02 05:37:41;;;;;;;6.50;0.80;;;;;;;20.01;62.29;100414.16;5123966;28;20273;-61
2022/09/02 05:40:22;;;;;;;6.70;1.00;;;;;;;19.70;61.49;100346.84;5124568;28;20334;-62
2022/09/02 05:43:07;;;;;;;8.93;1.20;;;;;;;20.16;60.41;100402.72;5124124;28;20274;-62
2022/09/02 05:46:05;;;;;;;4.27;1.00;;;;;;;20.19;60.03;100391.97;5124507;28;20358;-63
2022/09/02 05:51:59;;;;;;;14.27;1.20;;;;;;;20.02;61.49;100405.28;5124495;28;20289;-63
2022/09/02 05:54:37;;;;;;;5.43;0.87;;;;;;;20.30;61.43;100414.41;5121359;28;20294;-63
2022/09/02 05:57:15;;;;;;;9.60;1.50;;;;;;;20.56;59.21;100410.31;5106985;28;20281;-62
2022/09/02 06:00:07;;;;;;;4.00;1.00;;;;;;;20.70;59.47;100422.84;5124256;28;20653;-62
2022/09/02 06:05:42;;;;;;;;;;;;;;;20.40;59.95;100420.91;5096770;28;20304;-63
2022/09/02 06:08:29;;;;;;;7.27;0.80;;;;;;;20.55;59.90;100420.09;5124586;28;19943;-63
2022/09/02 06:11:06;;;;;;;4.77;1.53;;;;;;;20.68;60.42;100429.06;5123339;28;20315;-63
2022/09/02 06:13:48;;;;;;;2.40;0.90;;;;;;;20.80;60.12;100424.03;5124487;28;20313;-61
2022/09/02 06:16:31;;;;;;;5.33;1.40;;;;;;;20.59;59.62;100408.38;5124110;28;20300;-62
2022/09/02 06:19:09;;;;;;;5.67;0.97;;;;;;;20.76;59.76;100422.47;5124006;28;20506;-61
2022/09/02 06:22:08;;;;;;;9.80;0.93;;;;;;;20.84;60.02;100426.44;5093373;28;20451;-61
2022/09/02 06:27:50;;;;;;;3.60;1.03;;;;;;;20.71;59.28;100435.16;5108520;28;20305;-63
2022/09/02 06:30:34;;;;;;;8.53;1.67;;;;;;;20.21;60.08;100444.91;5124078;28;20353;-63
2022/09/02 06:33:13;;;;;;;4.13;0.77;;;;;;;19.73;61.64;100374.97;5123602;28;20269;-64
2022/09/02 06:35:51;;;;;;;9.27;1.33;;;;;;;20.00;62.00;100423.06;5087403;28;20293;-65
2022/09/02 06:38:35;;;;;;;8.10;1.47;;;;;;;20.00;62.15;100438.97;5095050;28;20352;-66
2022/09/02 06:41:32;;;;;;;5.30;1.03;;;;;;;20.09;62.32;100441.09;5123838;28;20585;-65
2022/09/02 06:44:09;;;;;;;9.93;1.77;;;;;;;20.08;63.31;100439.41;5123201;28;20297;-65
2022/09/02 06:46:56;;;;;;;5.13;1.60;;;;;;;20.15;64.20;100438.16;5123277;28;20059;-64
2022/09/02 06:49:28;;;;;;;4.73;1.23;;;;;;;20.06;64.71;100432.47;5122100;28;20281;-65
2022/09/02 06:52:14;;;;;;;6.60;2.80;;;;;;;20.04;64.55;100445.81;5121882;28;20593;-66
2022/09/02 06:55:07;;;;;;;9.17;4.83;;;;;;;20.09;65.27;100443.75;5108093;28;20281;-65
2022/09/02 06:57:49;;;;;;;12.37;5.33;;;;;;;20.36;65.38;100445.88;5122113;28;20313;-66
2022/09/02 07:00:27;;;;;;;9.20;1.63;;;;;;;20.60;63.42;100455.22;5104364;28;20333;-66
2022/09/02 07:06:11;;;;;;;3.57;0.80;;;;;;;20.77;62.53;100461.41;5093327;28;20332;-66
2022/09/02 07:08:50;;;;;;;7.93;1.50;;;;;;;20.74;62.36;100464.19;5123273;28;20293;-65
2022/09/02 07:11:30;;;;;;;4.17;0.80;;;;;;;20.74;60.96;100461.53;5122433;28;20302;-66
2022/09/02 07:14:16;;;;;;;5.53;0.87;;;;;;;20.76;61.39;100464.97;5088246;28;20289;-66
2022/09/02 07:16:54;;;;;;;7.70;1.00;;;;;;;20.99;62.51;100472.53;5122736;28;20324;-66
2022/09/02 07:19:37;;;;;;;3.13;0.90;;;;;;;21.07;60.40;100480.91;5122718;28;20281;-67
2022/09/02 07:22:15;;;;;;;4.80;0.80;;;;;;;21.17;60.70;100464.44;5122277;28;20278;-67
2022/09/02 07:24:53;;;;;;;8.73;2.67;;;;;;;21.18;61.28;100476.78;5053893;28;20474;-67
2022/09/02 07:27:42;;;;;;;5.87;2.47;;;;;;;20.98;59.92;100486.72;5119466;28;20313;-66
2022/09/02 07:30:23;;;;;;;5.83;1.20;;;;;;;20.83;61.44;100476.97;5122631;28;20301;-65
2022/09/02 07:33:05;;;;;;;6.90;0.97;;;;;;;20.67;62.12;100488.44;5122107;28;20344;-66
2022/09/02 07:36:01;;;;;;;7.25;1.40;;;;;;;20.54;63.24;100483.84;5074032;28;20694;-71
2022/09/02 07:38:40;;;;;;;5.47;1.10;;;;;;;20.38;63.05;100499.75;5110501;28;20053;-66
2022/09/02 07:41:16;;;;;;;4.57;1.37;;;;;;;20.20;63.06;100493.63;5112998;28;20393;-67
2022/09/02 07:44:01;;;;;;;4.37;1.57;;;;;;;20.14;63.96;100497.44;5112134;28;20309;-67
2022/09/02 07:47:17;;;;;;;7.03;1.35;;;;;;;20.19;63.47;100495.44;5111281;28;20349;-65
2022/09/02 07:49:59;;;;;;;6.60;1.30;;;;;;;20.01;63.74;100467.19;5112040;28;20056;-65
2022/09/02 07:52:57;;;;;;;4.67;1.30;;;;;;;20.35;65.07;100519.34;5083563;28;20294;-66
2022/09/02 07:55:43;;;;;;;4.47;1.23;;;;;;;20.45;64.07;100520.56;5111100;28;20293;-66
2022/09/02 07:58:32;;;;;;;5.93;1.00;;;;;;;20.23;64.44;100488.16;5112866;28;20552;-65
2022/09/02 08:01:21;;;;;;;3.63;0.90;;;;;;;20.38;64.60;100518.31;5094921;28;20144;-67
2022/09/02 08:04:05;;;;;;;3.30;1.20;;;;;;;20.50;64.53;100538.91;5085257;28;20300;-66
2022/09/02 08:06:58;;;;;;;5.70;1.00;;;;;;;20.24;62.60;100527.88;5111454;28;20293;-66
2022/09/02 08:09:47;;;;;;;6.07;0.80;;;;;;;19.96;62.78;100527.56;5110025;28;20289;-65
2022/09/02 08:12:26;;;;;;;5.17;1.00;;;;;;;19.76;64.10;100532.09;5111530;28;20305;-66
2022/09/02 08:15:27;;;;;;;7.90;1.40;;;;;;;19.71;65.50;100534.13;5107450;28;20501;-64
2022/09/02 08:18:03;;;;;;;4.93;0.80;;;;;;;19.71;65.73;100547.38;5110726;28;20051;-65
2022/09/02 08:20:51;;;;;;;8.83;1.40;;;;;;;19.69;66.86;100543.94;5110407;28;20355;-65
2022/09/02 08:23:46;;;;;;;8.83;1.13;;;;;;;19.67;68.43;100536.97;5084326;28;20317;-65
2022/09/02 08:29:37;;;;;;;12.37;1.60;;;;;;;19.66;69.30;100559.13;5108182;28;20325;-65
2022/09/02 08:32:12;;;;;;;5.17;1.70;;;;;;;19.40;69.76;100543.56;5111217;28;20301;-67
2022/09/02 08:34:50;;;;;;;8.97;4.00;;;;;;;19.44;70.04;100572.56;5113357;28;20308;-67
2022/09/02 08:37:36;;;;;;;7.10;2.07;;;;;;;19.37;70.54;100575.50;5088473;28;20334;-66
2022/09/02 08:40:20;;;;;;;7.97;1.40;;;;;;;19.30;70.96;100587.31;5120316;28;20335;-66
2022/09/02 08:43:23;;;;;;;8.33;2.23;;;;;;;19.14;71.23;100597.75;5121372;28;20346;-66
2022/09/02 08:46:07;;;;;;;5.77;2.63;;;;;;;18.95;72.19;100592.47;5120050;28;20385;-66
2022/09/02 08:48:58;;;;;;;9.80;3.20;;;;;;;18.72;72.55;100613.78;5095318;28;20412;-66
2022/09/02 08:51:35;;;;;;;8.77;2.50;;;;;;;18.39;73.53;100598.47;5121544;28;20273;-66
2022/09/02 08:54:25;;;;;;;17.00;3.23;;;;;;;18.32;74.61;100612.88;5121035;28;20319;-66
2022/09/02 08:57:10;;;;;;;15.43;2.30;;;;;;;18.13;75.23;100606.69;5110529;28;20297;-67
2022/09/02 09:00:03;;;;;;;23.83;1.90;;;;;;;18.08;76.04;100626.25;5121050;28;20369;-67
2022/09/02 09:02:55;;;;;;;15.27;1.80;;;;;;;17.83;76.53;100628.19;5121289;28;20301;-66
2022/09/02 09:08:49;;;;;;;10.75;1.60;;;;;;;17.09;78.76;100591.41;5120971;28;20281;-66
2022/09/02 09:11:41;;;;;;;15.57;1.90;;;;;;;17.20;79.55;100647.31;5120911;28;20114;-67
2022/09/02 09:14:28;;;;;;;13.43;1.77;;;;;;;17.06;80.24;100636.41;5119725;28;20294;-65
2022/09/02 09:17:09;;;;;;;12.67;1.60;;;;;;;17.02;80.28;100659.44;5120752;28;20286;-65
2022/09/02 09:23:48;;;;;;;7.13;1.30;;;;;;;16.77;81.44;100654.16;5118525;28;20309;-66
2022/09/02 09:26:31;;;;;;;4.23;0.90;;;;;;;16.26;81.81;100610.22;5120627;28;20317;-67
2022/09/02 09:29:27;;;;;;;6.75;1.23;;;;;;;16.48;82.56;100667.50;5121106;28;20289;-66
2022/09/02 09:32:31;;;;;;;7.63;2.10;;;;;;;16.27;83.23;100669.94;5068449;28;20043;-65
2022/09/02 09:35:09;;;;;;;15.10;2.67;;;;;;;16.07;83.96;100682.91;5119769;28;20290;-66
2022/09/02 09:37:53;;;;;;;12.87;2.27;;;;;;;15.78;85.20;100682.06;5121103;28;20353;-65
2022/09/02 09:40:36;;;;;;;2.67;1.40;;;;;;;15.45;86.38;100663.72;5120098;28;20446;-66
2022/09/02 09:43:21;;;;;;;5.23;1.70;;;;;;;15.19;87.47;100655.72;5120676;28;20344;-64
2022/09/02 09:46:41;;;;;;;6.30;1.97;;;;;;;15.06;87.98;100671.03;5120928;28;20277;-64
2022/09/02 09:49:48;;;;;;;9.37;2.47;;;;;;;14.85;89.08;100683.00;5117216;28;20350;-65
2022/09/02 09:52:46;;;;;;;8.23;1.80;;;;;;;14.76;89.87;100693.78;5093945;28;20329;-64
2022/09/02 09:55:53;;;;;;;12.33;1.57;;;;;;;14.52;90.43;100659.28;5120625;28;20342;-64
2022/09/02 09:58:51;;;;;;;17.57;1.90;;;;;;;14.66;91.09;100690.53;5122433;28;20285;-64
2022/09/02 10:02:29;;;;;;;17.37;2.13;;;;;;;14.54;91.29;100689.06;5124302;28;20316;-65
2022/09/02 10:05:39;;;;;;;9.63;1.67;;;;;;;14.36;91.98;100673.75;5091597;28;20326;-64
2022/09/02 10:08:52;;;;;;;8.53;5.50;;;;;;;14.22;92.47;100672.31;5091109;28;20282;-64
2022/09/02 10:15:40;;;;;;;9.68;2.55;;;;;;;14.19;93.61;100698.66;5051618;28;20417;-65
2022/09/02 10:18:58;;;;;;;10.27;3.60;;;;;;;14.10;93.94;100714.66;4999003;28;20634;-64
2022/09/02 10:22:41;;;;;;;10.23;4.93;;;;;;;14.01;94.49;100709.63;5017368;28;20343;-64
2022/09/02 10:29:19;;;;;;;8.17;2.73;;;;;;;13.75;94.90;100682.22;5037990;28;20408;-64
2022/09/02 10:36:42;;;;;;;;;;;;;;;;;;;;;
2022/09/02 10:43:44;;;;;;;9.68;3.10;;;;;;;13.61;96.03;100731.53;4962603;29;20287;-63
2022/09/02 10:46:47;;;;;;;7.30;4.28;;;;;;;13.49;96.47;100716.91;4963078;29;20063;-63
2022/09/02 10:49:32;;;;;;;5.80;2.83;;;;;;;13.36;96.21;100700.56;4962778;29;20079;-64
2022/09/02 10:56:01;;;;;;;8.80;2.00;;;;;;;13.80;96.23;100742.50;5001398;28;20057;-66
2022/09/02 10:59:04;;;;;;;8.20;2.00;;;;;;;13.81;95.53;100749.50;4971661;28;20058;-65
2022/09/02 11:05:21;;;;;;;7.13;3.57;;;;;;;13.78;95.04;100755.69;4996800;28;20352;-66
2022/09/02 11:08:11;;;;;;;16.33;3.40;;;;;;;13.80;94.59;100759.16;5010797;28;20277;-67
2022/09/02 11:11:02;;;;;;;11.77;2.97;;;;;;;13.74;94.33;100759.25;5009108;28;20329;-67
2022/09/02 11:13:52;;;;;;;12.60;2.67;;;;;;;13.77;94.21;100774.94;5009310;28;20349;-65
2022/09/02 11:19:37;;;;;;;10.60;3.25;;;;;;;13.73;93.70;100768.03;5012806;28;20771;-64
2022/09/02 11:22:33;;;;;;;7.97;2.60;;;;;;;13.69;93.31;100766.38;5083596;28;20122;-64
2022/09/02 11:25:32;;;;;;;10.27;2.80;;;;;;;13.30;93.32;100705.91;5108194;28;20050;-64
2022/09/02 11:31:37;;;;;;;10.95;2.45;;;;;;;13.44;93.71;100758.13;5122751;28;20039;-65
2022/09/02 11:34:33;;;;;;;10.50;2.50;;;;;;;13.38;93.75;100755.66;5120377;28;20119;-65
2022/09/02 11:37:14;;;;;;;7.07;1.87;;;;;;;13.36;93.85;100758.28;5122832;28;20071;-65
2022/09/02 11:39:56;;;;;;;6.93;1.92;;;;;;;13.28;93.98;100769.81;5088930;28;20285;-64
2022/09/02 11:43:25;;;;;;;;;;;;;;;13.23;94.06;100772.53;5122857;28;20074;-65
2022/09/02 11:46:38;;;;;;;12.80;3.55;;;;;;;13.21;94.08;100778.69;5122423;28;19991;-64
2022/09/02 11:49:58;;;;;;;11.93;3.53;;;;;;;13.17;93.69;100783.13;5122322;28;20063;-64
2022/09/02 11:53:00;;;;;;;9.48;3.10;;;;;;;13.05;93.35;100773.72;5039810;28;20052;-65
2022/09/02 11:55:46;;;;;;;9.07;2.63;;;;;;;13.18;93.44;100790.13;5122398;28;20143;-64
2022/09/02 11:58:46;;;;;;;8.75;1.85;;;;;;;13.12;93.36;100795.47;5095572;28;20051;-66
2022/09/02 12:01:33;;;;;;;9.00;1.85;;;;;;;12.93;93.31;100766.97;5095774;28;20047;-65
2022/09/02 12:04:25;;;;;;;5.93;2.30;;;;;;;13.09;93.37;100806.03;5122102;28;20078;-67
2022/09/02 12:07:31;;;;;;;11.52;2.67;;;;;;;12.94;93.19;100797.53;5122265;28;20043;-65
2022/09/02 12:10:51;;;;;;;6.10;1.80;;;;;;;12.86;93.83;100807.28;5122379;28;20092;-66
2022/09/02 12:13:39;;;;;;;8.90;1.65;;;;;;;12.72;94.52;100796.16;5121714;28;20123;-66
2022/09/02 12:16:48;;;;;;;8.63;1.80;;;;;;;12.70;95.08;100803.19;5120772;28;20087;-64
2022/09/02 12:19:47;;;;;;;5.07;0.90;;;;;;;12.51;95.73;100782.53;5121952;28;20051;-64
2022/09/02 12:22:41;;;;;;;5.55;1.60;;;;;;;12.54;96.12;100801.72;5120098;28;20351;-64
2022/09/02 12:25:43;;;;;;;8.38;1.88;;;;;;;12.54;96.62;100806.97;5121801;28;20051;-65
2022/09/02 12:28:31;;;;;;;11.10;3.17;;;;;;;12.52;96.83;100805.22;5121993;28;20052;-65
2022/09/02 12:31:28;;;;;;;8.48;4.53;;;;;;;12.34;97.05;100779.31;5079915;28;20051;-64
2022/09/02 12:34:52;;;;;;;9.25;3.90;;;;;;;12.59;97.21;100810.38;5082275;28;20051;-64
2022/09/02 12:38:20;;;;;;;12.43;4.57;;;;;;;12.65;97.17;100815.50;5121236;28;20099;-64
2022/09/02 12:41:07;;;;;;;6.30;3.40;;;;;;;12.55;96.37;100800.81;5121897;28;20051;-64
2022/09/02 12:44:10;;;;;;;6.28;2.67;;;;;;;12.17;95.74;100752.50;5121297;28;20086;-64
2022/09/02 12:50:01;;;;;;;11.70;2.17;;;;;;;12.62;95.24;100831.28;5082950;28;20285;-65
2022/09/02 12:52:46;;;;;;;9.13;2.28;;;;;;;12.51;94.84;100823.59;5121392;28;20427;-64
2022/09/02 12:55:56;;;;;;;11.35;6.47;;;;;;;12.46;94.44;100842.03;5121270;28;20051;-64
2022/09/02 12:58:40;;;;;;;22.88;9.90;;;;;;;11.98;93.76;100770.22;5121219;28;20044;-63
2022/09/02 13:01:34;;;;;;;17.77;9.68;;;;;;;12.37;94.04;100841.28;5121708;28;20085;-65
2022/09/02 13:04:39;;;;;;;7.35;2.95;;;;;;;12.32;94.16;100843.97;5120316;28;20051;-64
2022/09/02 13:07:53;;;;;;;10.15;5.20;;;;;;;12.28;94.53;100847.50;5121301;28;20044;-65
2022/09/02 13:14:22;;;;;;;20.15;4.45;;;;;;;12.13;94.46;100847.72;5118853;28;20337;-65
2022/09/02 13:17:21;;;;;;;16.58;4.75;;;;;;;12.11;94.81;100849.53;5119691;28;20065;-65
2022/09/02 13:20:49;;;;;;;9.13;3.10;;;;;;;11.96;94.35;100846.22;5121400;28;20051;-64
2022/09/02 13:24:07;;;;;;;14.13;3.67;;;;;;;12.00;95.25;100847.03;5117104;28;20066;-65
2022/09/02 13:27:19;;;;;;;8.27;3.17;;;;;;;11.98;95.06;100843.53;5120619;28;20148;-64
2022/09/02 13:30:11;;;;;;;9.32;3.13;;;;;;;11.97;95.01;100837.44;5121234;28;20051;-64
2022/09/02 13:33:10;;;;;;;17.13;3.20;;;;;;;12.01;95.24;100844.41;5095544;28;20107;-64
2022/09/02 13:35:45;;;;;;;3.13;2.03;;;;;;;12.07;94.73;100839.06;5124813;28;20114;-64
2022/09/02 13:38:35;;;;;;;9.20;1.75;;;;;;;12.06;94.22;100842.56;5122821;28;20051;-63
2022/09/02 13:41:31;;;;;;;6.15;1.80;;;;;;;12.03;94.19;100850.47;5091633;28;20067;-64
2022/09/02 13:44:14;;;;;;;8.38;1.85;;;;;;;12.01;94.18;100848.78;5124935;28;20056;-64
2022/09/02 13:46:52;;;;;;;9.75;1.48;;;;;;;11.91;93.87;100840.16;5123898;28;20043;-64
2022/09/02 13:50:08;;;;;;;3.50;1.80;;;;;;;11.69;93.75;100804.63;5121802;28;20081;-64
2022/09/02 13:52:53;;;;;;;5.30;1.60;;;;;;;11.99;93.75;100848.78;5123437;28;20119;-64
2022/09/02 13:55:55;;;;;;;6.38;1.35;;;;;;;11.97;94.20;100842.69;5122484;28;20062;-64
2022/09/02 13:59:00;;;;;;;2.83;1.33;;;;;;;11.96;94.77;100830.50;5124684;28;20059;-64
2022/09/02 14:01:53;;;;;;;4.97;1.42;;;;;;;11.99;95.49;100830.44;5082462;28;20831;-64
2022/09/02 14:04:34;;;;;;;11.73;1.70;;;;;;;11.97;95.49;100829.59;5125072;28;20062;-64
2022/09/02 14:07:18;;;;;;;7.28;1.58;;;;;;;11.87;96.08;100822.75;5123246;28;20049;-64
2022/09/02 14:10:01;;;;;;;4.68;1.42;;;;;;;11.92;96.70;100823.56;5074556;28;20158;-65
2022/09/02 14:12:39;;;;;;;4.35;1.00;;;;;;;11.86;96.95;100819.25;5098610;28;20111;-65
2022/09/02 14:15:27;;;;;;;8.02;1.55;;;;;;;11.96;97.00;100838.34;5123820;28;20135;-65
2022/09/02 14:18:30;;;;;;;4.45;1.52;;;;;;;11.66;96.87;100768.88;5124607;28;20063;-65
2022/09/02 14:21:23;;;;;;;11.30;2.13;;;;;;;12.16;96.03;100847.69;5123603;28;20052;-64
2022/09/02 14:24:07;;;;;;;8.93;1.80;;;;;;;12.11;95.52;100849.53;5106267;28;20078;-63
2022/09/02 14:26:59;;;;;;;7.10;1.60;;;;;;;12.05;94.91;100851.31;5123817;28;20334;-64
2022/09/02 14:29:56;;;;;;;3.72;1.75;;;;;;;11.78;94.22;100814.97;5052483;28;20044;-65